Time;durP1;ratioP1;P1;durP2;ratioP2;P2;SDS_P1;SDS_P2;PMS_P1;PMS_P2;Temp;Humidity;BMP_temperature;BMP_pressure;BME280_temperature;BME280_humidity;BME280_pressure;Samples;Min_cycle;Max_cycle;Signal;HPM_P1;HPM_P2
2021/03/22 00:01:07;;;;;;;27.73;9.75;;;;;;;;;;5031057;28;20057;-74
2021/03/22 00:03:34;;;;;;;30.57;9.63;;;;;;;;;;5014475;28;20088;-73
2021/03/22 00:06:01;;;;;;;27.02;9.70;;;;;;;;;;5030239;28;20326;-74
2021/03/22 00:08:27;;;;;;;26.88;9.95;;;;;;;;;;4998174;28;20057;-75
2021/03/22 00:10:53;;;;;;;27.20;9.55;;;;;;;;;;5025619;28;20049;-73
2021/03/22 00:13:21;;;;;;;21.02;8.43;;;;;;;;;;5001408;28;20057;-73
2021/03/22 00:15:49;;;;;;;24.30;9.10;;;;;;;;;;5017374;28;20487;-73
2021/03/22 00:18:20;;;;;;;26.10;8.90;;;;;;;;;;5017705;28;20482;-73
2021/03/22 00:20:47;;;;;;;25.58;8.90;;;;;;;;;;5017983;28;20056;-74
2021/03/22 00:23:14;;;;;;;27.45;9.00;;;;;;;;;;5014059;28;20100;-73
2021/03/22 00:25:40;;;;;;;26.55;9.38;;;;;;;;;;4997453;28;20045;-73
2021/03/22 00:28:07;;;;;;;26.08;8.75;;;;;;;;;;4982112;28;20575;-73
2021/03/22 00:30:36;;;;;;;30.30;9.40;;;;;;;;;;4997743;28;20057;-73
2021/03/22 00:33:03;;;;;;;21.98;7.80;;;;;;;;;;4997876;28;20057;-73
2021/03/22 00:35:29;;;;;;;34.22;9.50;;;;;;;;;;4997320;28;20061;-73
2021/03/22 00:37:55;;;;;;;22.67;8.55;;;;;;;;;;5014710;28;20103;-74
2021/03/22 00:40:24;;;;;;;27.42;8.10;;;;;;;;;;5020339;28;20500;-74
2021/03/22 00:42:50;;;;;;;31.92;9.63;;;;;;;;;;5004383;28;20053;-74
2021/03/22 00:45:17;;;;;;;26.75;7.78;;;;;;;;;;5003770;28;20042;-73
2021/03/22 00:47:43;;;;;;;31.35;7.80;;;;;;;;;;5004162;28;20053;-74
2021/03/22 00:50:12;;;;;;;20.08;7.32;;;;;;;;;;5020360;28;20488;-74
2021/03/22 00:52:38;;;;;;;21.17;7.95;;;;;;;;;;5020405;28;20050;-74
2021/03/22 00:55:05;;;;;;;23.05;7.10;;;;;;;;;;5020473;28;20052;-75
2021/03/22 00:57:31;;;;;;;19.27;6.57;;;;;;;;;;5003721;28;20054;-74
2021/03/22 00:59:57;;;;;;;26.35;7.72;;;;;;;;;;5038089;28;20103;-74
2021/03/22 01:02:23;;;;;;;18.30;6.03;;;;;;;;;;5020460;28;20471;-73
2021/03/22 01:04:49;;;;;;;25.95;6.78;;;;;;;;;;5028894;28;20069;-74
2021/03/22 01:07:15;;;;;;;24.00;6.35;;;;;;;;;;5019762;28;20467;-74
2021/03/22 01:09:41;;;;;;;25.85;6.53;;;;;;;;;;5003889;28;20056;-73
2021/03/22 01:12:08;;;;;;;21.65;6.60;;;;;;;;;;5020257;28;20076;-73
2021/03/22 01:14:34;;;;;;;21.38;6.13;;;;;;;;;;4987952;28;20107;-73
2021/03/22 01:17:01;;;;;;;24.77;5.97;;;;;;;;;;5037253;28;20133;-73
2021/03/22 01:19:28;;;;;;;23.35;7.63;;;;;;;;;;5020123;28;20085;-73
2021/03/22 01:21:59;;;;;;;19.67;6.38;;;;;;;;;;5004214;28;20543;-73
2021/03/22 01:24:26;;;;;;;16.15;5.88;;;;;;;;;;4988348;28;20048;-75
2021/03/22 01:26:55;;;;;;;21.98;5.80;;;;;;;;;;5003360;28;20053;-73
2021/03/22 01:29:26;;;;;;;22.35;6.07;;;;;;;;;;5003879;28;20520;-74
2021/03/22 01:31:56;;;;;;;24.10;6.80;;;;;;;;;;5020183;28;20112;-74
2021/03/22 01:34:23;;;;;;;21.55;6.00;;;;;;;;;;5005512;28;20495;-73
2021/03/22 01:36:49;;;;;;;29.50;6.80;;;;;;;;;;5003324;28;20111;-73
2021/03/22 01:39:21;;;;;;;21.35;6.60;;;;;;;;;;4987620;28;20107;-73
2021/03/22 01:41:54;;;;;;;20.95;5.28;;;;;;;;;;4987969;28;20080;-74
2021/03/22 01:44:27;;;;;;;29.80;6.53;;;;;;;;;;5037208;28;20045;-77
2021/03/22 01:46:58;;;;;;;18.15;5.63;;;;;;;;;;5039212;28;20287;-73
2021/03/22 01:49:27;;;;;;;19.63;5.35;;;;;;;;;;5039007;28;20049;-74
2021/03/22 01:51:54;;;;;;;18.25;5.90;;;;;;;;;;5036100;28;20122;-73
2021/03/22 01:54:20;;;;;;;28.17;6.00;;;;;;;;;;5036550;28;20099;-74
2021/03/22 01:56:48;;;;;;;28.23;5.57;;;;;;;;;;5052438;28;20057;-74
2021/03/22 01:59:17;;;;;;;13.05;4.47;;;;;;;;;;5036478;28;20466;-75
2021/03/22 02:01:45;;;;;;;27.67;4.65;;;;;;;;;;5036616;28;20049;-74
2021/03/22 02:04:11;;;;;;;13.85;5.07;;;;;;;;;;5036429;28;20067;-74
2021/03/22 02:06:37;;;;;;;16.30;4.10;;;;;;;;;;5020212;28;20048;-74
2021/03/22 02:09:04;;;;;;;17.30;4.70;;;;;;;;;;5054488;28;20075;-73
2021/03/22 02:11:32;;;;;;;20.13;5.22;;;;;;;;;;5037283;28;20052;-73
2021/03/22 02:14:00;;;;;;;20.00;5.05;;;;;;;;;;5022768;28;20042;-74
2021/03/22 02:16:54;;;;;;;23.77;6.20;;;;;;;;;;4999611;28;20496;-75
2021/03/22 02:19:20;;;;;;;;;;;;;;;;;;4987017;28;20054;-73
2021/03/22 02:22:24;;;;;;;21.52;4.15;;;;;;;;;;5016431;28;19928;-73
2021/03/22 02:24:59;;;;;;;15.95;4.18;;;;;;;;;;5033777;28;20127;-73
2021/03/22 02:27:47;;;;;;;20.77;3.60;;;;;;;;;;5015922;28;20053;-74
2021/03/22 02:30:19;;;;;;;24.58;3.63;;;;;;;;;;5033816;28;20463;-76
2021/03/22 02:33:10;;;;;;;19.67;4.35;;;;;;;;;;5033659;28;20053;-74
2021/03/22 02:35:53;;;;;;;16.77;4.60;;;;;;;;;;5032807;28;20095;-73
2021/03/22 02:38:35;;;;;;;16.95;4.05;;;;;;;;;;5015984;28;20471;-74
2021/03/22 02:41:18;;;;;;;19.67;4.00;;;;;;;;;;5000337;28;20097;-75
2021/03/22 02:43:58;;;;;;;;;;;;;;;;;;5000836;28;20050;-73
2021/03/22 02:46:24;;;;;;;19.40;3.88;;;;;;;;;;5039425;28;19921;-73
2021/03/22 02:48:50;;;;;;;18.15;3.70;;;;;;;;;;5035734;28;20499;-73
2021/03/22 02:51:36;;;;;;;19.75;4.47;;;;;;;;;;5019055;28;20044;-76
2021/03/22 02:54:09;;;;;;;20.50;4.22;;;;;;;;;;5037310;28;20045;-74
2021/03/22 02:56:37;;;;;;;14.05;3.13;;;;;;;;;;5018795;28;20041;-74
2021/03/22 02:59:27;;;;;;;20.38;4.75;;;;;;;;;;5035518;28;20095;-77
2021/03/22 03:01:58;;;;;;;15.85;4.47;;;;;;;;;;5036150;28;20081;-74
2021/03/22 03:04:25;;;;;;;13.43;3.45;;;;;;;;;;5015943;28;20053;-74
2021/03/22 03:06:55;;;;;;;20.08;4.00;;;;;;;;;;4998507;28;20103;-73
2021/03/22 03:09:27;;;;;;;26.27;4.70;;;;;;;;;;5018125;28;20049;-73
2021/03/22 03:11:53;;;;;;;18.05;5.20;;;;;;;;;;5018758;28;20049;-73
2021/03/22 03:14:20;;;;;;;15.93;3.53;;;;;;;;;;5052688;28;20045;-73
2021/03/22 03:16:46;;;;;;;18.02;4.68;;;;;;;;;;5034352;28;20049;-75
2021/03/22 03:19:12;;;;;;;22.95;4.93;;;;;;;;;;5035020;28;20049;-75
2021/03/22 03:21:38;;;;;;;16.50;3.55;;;;;;;;;;5034744;28;20122;-75
2021/03/22 03:24:06;;;;;;;13.27;3.53;;;;;;;;;;5052455;28;20106;-74
2021/03/22 03:26:32;;;;;;;16.23;3.65;;;;;;;;;;5017870;28;20057;-75
2021/03/22 03:28:58;;;;;;;24.15;4.30;;;;;;;;;;5002263;28;20083;-75
2021/03/22 03:31:24;;;;;;;29.50;3.88;;;;;;;;;;5051270;28;20053;-74
2021/03/22 03:33:51;;;;;;;21.77;4.60;;;;;;;;;;5052177;28;20126;-74
2021/03/22 03:36:17;;;;;;;21.15;3.30;;;;;;;;;;5034130;28;20088;-73
2021/03/22 03:38:44;;;;;;;16.17;3.35;;;;;;;;;;5052560;28;20573;-73
2021/03/22 03:41:10;;;;;;;16.40;3.42;;;;;;;;;;5018310;28;20049;-73
2021/03/22 03:43:36;;;;;;;16.98;4.13;;;;;;;;;;5051994;28;20099;-74
2021/03/22 03:46:02;;;;;;;20.48;3.22;;;;;;;;;;5058277;23;20071;-70
2021/03/22 03:48:29;;;;;;;16.27;5.13;;;;;;;;;;5052866;28;20098;-70
2021/03/22 03:50:57;;;;;;;17.67;2.92;;;;;;;;;;5053386;28;20049;-70
2021/03/22 03:53:24;;;;;;;18.02;3.78;;;;;;;;;;5048551;28;20131;-70
2021/03/22 03:55:50;;;;;;;15.35;2.97;;;;;;;;;;5032332;28;20045;-70
2021/03/22 03:58:17;;;;;;;16.92;3.47;;;;;;;;;;5032380;28;20054;-70
2021/03/22 04:00:45;;;;;;;16.42;3.53;;;;;;;;;;5031661;28;20053;-70
2021/03/22 04:03:18;;;;;;;15.13;3.08;;;;;;;;;;5033519;28;20091;-70
2021/03/22 04:05:44;;;;;;;11.27;2.75;;;;;;;;;;5032594;28;20045;-70
2021/03/22 04:08:12;;;;;;;16.00;3.08;;;;;;;;;;5032915;28;20045;-70
2021/03/22 04:10:38;;;;;;;15.93;3.95;;;;;;;;;;5033197;28;20460;-70
2021/03/22 04:13:05;;;;;;;9.25;2.53;;;;;;;;;;5032446;28;20458;-70
2021/03/22 04:15:31;;;;;;;12.20;2.80;;;;;;;;;;5050613;28;20049;-70
2021/03/22 04:17:57;;;;;;;17.10;3.70;;;;;;;;;;5052273;28;20103;-70
2021/03/22 04:20:24;;;;;;;16.48;3.53;;;;;;;;;;5052108;28;20522;-70
2021/03/22 04:22:53;;;;;;;22.17;3.25;;;;;;;;;;5052113;28;20056;-70
2021/03/22 04:25:19;;;;;;;15.95;3.42;;;;;;;;;;5051535;28;20045;-70
2021/03/22 04:27:45;;;;;;;13.32;3.28;;;;;;;;;;5049087;28;20413;-70
2021/03/22 04:30:12;;;;;;;12.60;2.13;;;;;;;;;;5032377;28;20049;-70
2021/03/22 04:32:38;;;;;;;11.93;2.45;;;;;;;;;;5032522;28;20068;-70
2021/03/22 04:35:06;;;;;;;15.48;2.97;;;;;;;;;;5032256;28;20050;-70
2021/03/22 04:37:32;;;;;;;15.13;2.60;;;;;;;;;;5032027;28;20448;-70
2021/03/22 04:39:58;;;;;;;18.77;2.50;;;;;;;;;;5032847;28;20079;-69
2021/03/22 04:42:24;;;;;;;10.80;2.33;;;;;;;;;;5031477;28;20056;-70
2021/03/22 04:44:50;;;;;;;17.25;2.00;;;;;;;;;;5031303;28;20090;-69
2021/03/22 04:47:16;;;;;;;12.30;3.30;;;;;;;;;;5031158;28;20073;-70
2021/03/22 04:49:42;;;;;;;15.80;2.45;;;;;;;;;;5031614;28;20633;-70
2021/03/22 04:52:09;;;;;;;15.48;3.53;;;;;;;;;;5031625;28;20053;-69
2021/03/22 04:54:35;;;;;;;13.65;3.22;;;;;;;;;;5038557;28;20045;-69
2021/03/22 04:57:28;;;;;;;14.32;3.35;;;;;;;;;;5050999;28;20049;-70
2021/03/22 04:59:54;;;;;;;22.27;3.53;;;;;;;;;;5043395;28;20053;-70
2021/03/22 05:02:20;;;;;;;19.50;3.30;;;;;;;;;;5032328;28;20492;-71
2021/03/22 05:04:56;;;;;;;18.13;3.47;;;;;;;;;;5033842;28;20053;-70
2021/03/22 05:07:23;;;;;;;18.33;3.08;;;;;;;;;;5050772;28;20516;-70
2021/03/22 05:09:49;;;;;;;16.38;3.00;;;;;;;;;;5051635;28;20470;-70
2021/03/22 05:12:15;;;;;;;14.65;3.15;;;;;;;;;;5051791;28;20107;-70
2021/03/22 05:14:41;;;;;;;18.92;4.88;;;;;;;;;;5051640;28;20100;-69
2021/03/22 05:17:08;;;;;;;16.95;3.05;;;;;;;;;;5065132;28;20498;-70
2021/03/22 05:19:34;;;;;;;13.85;3.45;;;;;;;;;;5051935;28;20477;-69
2021/03/22 05:22:01;;;;;;;9.23;2.53;;;;;;;;;;5051967;28;20500;-71
2021/03/22 05:24:27;;;;;;;17.02;2.80;;;;;;;;;;5052011;28;20045;-70
2021/03/22 05:26:54;;;;;;;11.57;2.88;;;;;;;;;;5055047;28;20114;-70
2021/03/22 05:29:21;;;;;;;12.43;2.35;;;;;;;;;;5057260;28;20080;-70
2021/03/22 05:31:47;;;;;;;8.48;2.17;;;;;;;;;;5056718;28;20483;-69
2021/03/22 05:34:13;;;;;;;13.05;3.13;;;;;;;;;;5055463;28;20049;-70
2021/03/22 05:36:40;;;;;;;10.05;2.10;;;;;;;;;;5054165;28;20045;-70
2021/03/22 05:39:06;;;;;;;13.63;2.38;;;;;;;;;;5054650;28;20494;-70
2021/03/22 05:41:36;;;;;;;11.68;2.25;;;;;;;;;;5054621;28;20057;-69
2021/03/22 05:44:30;;;;;;;17.02;3.15;;;;;;;;;;5037528;28;20099;-70
2021/03/22 05:47:16;;;;;;;13.23;2.38;;;;;;;;;;5056225;28;20553;-68
2021/03/22 05:49:52;;;;;;;12.13;2.53;;;;;;;;;;5055698;28;20072;-70
2021/03/22 05:52:41;;;;;;;14.20;2.38;;;;;;;;;;5054690;28;20075;-69
2021/03/22 05:55:10;;;;;;;12.07;2.40;;;;;;;;;;5040814;28;20334;-69
2021/03/22 05:58:08;;;;;;;15.68;2.63;;;;;;;;;;5044191;28;20050;-69
2021/03/22 06:00:54;;;;;;;16.45;3.00;;;;;;;;;;5034051;28;20467;-69
2021/03/22 06:03:30;;;;;;;12.98;2.70;;;;;;;;;;5034311;28;20107;-69
2021/03/22 06:06:08;;;;;;;18.75;3.58;;;;;;;;;;5033560;28;20052;-70
2021/03/22 06:08:38;;;;;;;18.10;2.45;;;;;;;;;;5034223;28;20103;-69
2021/03/22 06:11:17;;;;;;;19.25;2.90;;;;;;;;;;5033322;28;20050;-69
2021/03/22 06:13:45;;;;;;;17.55;3.55;;;;;;;;;;5034269;28;20424;-70
2021/03/22 06:16:35;;;;;;;12.82;2.35;;;;;;;;;;5049031;28;20049;-70
2021/03/22 06:19:08;;;;;;;12.65;2.97;;;;;;;;;;5023785;28;20440;-69
2021/03/22 06:21:36;;;;;;;10.90;2.63;;;;;;;;;;5033072;28;20135;-70
2021/03/22 06:24:22;;;;;;;15.50;2.80;;;;;;;;;;5033536;28;20107;-70
2021/03/22 06:26:49;;;;;;;23.65;3.40;;;;;;;;;;5033757;28;20053;-69
2021/03/22 06:29:18;;;;;;;19.85;3.22;;;;;;;;;;5034446;28;20124;-70
2021/03/22 06:31:44;;;;;;;19.05;2.92;;;;;;;;;;5042683;28;20045;-69
2021/03/22 06:34:14;;;;;;;16.45;2.97;;;;;;;;;;5045549;28;20052;-70
2021/03/22 06:36:41;;;;;;;15.95;4.18;;;;;;;;;;5041689;28;20115;-70
2021/03/22 06:39:09;;;;;;;15.60;4.13;;;;;;;;;;4986289;28;20171;-70
2021/03/22 06:41:38;;;;;;;19.45;4.45;;;;;;;;;;5042593;28;20053;-69
2021/03/22 06:44:15;;;;;;;17.50;3.92;;;;;;;;;;5034746;28;20458;-70
2021/03/22 06:46:59;;;;;;;20.42;3.53;;;;;;;;;;5041338;28;20203;-69
2021/03/22 06:49:32;;;;;;;16.00;4.38;;;;;;;;;;5053573;28;20495;-69
2021/03/22 06:52:12;;;;;;;14.88;4.93;;;;;;;;;;5039176;28;20076;-69
2021/03/22 06:54:50;;;;;;;18.23;5.13;;;;;;;;;;5039655;28;20045;-69
2021/03/22 06:57:27;;;;;;;14.25;3.50;;;;;;;;;;5043839;28;20119;-69
2021/03/22 07:00:15;;;;;;;18.35;4.57;;;;;;;;;;5052566;28;20040;-69
2021/03/22 07:02:59;;;;;;;18.55;4.55;;;;;;;;;;5040590;28;20079;-69
2021/03/22 07:05:28;;;;;;;11.25;3.67;;;;;;;;;;5040063;28;20046;-69
2021/03/22 07:07:57;;;;;;;20.83;3.75;;;;;;;;;;5041835;28;20511;-69
2021/03/22 07:10:25;;;;;;;16.60;4.00;;;;;;;;;;5043498;28;20495;-69
2021/03/22 07:13:30;;;;;;;18.77;4.47;;;;;;;;;;5046005;28;20060;-69
2021/03/22 07:16:18;;;;;;;18.08;4.55;;;;;;;;;;4982547;28;20526;-69
2021/03/22 07:19:20;;;;;;;25.77;4.00;;;;;;;;;;5039845;28;20534;-69
2021/03/22 07:21:50;;;;;;;21.25;4.78;;;;;;;;;;5039646;28;20053;-69
2021/03/22 07:24:33;;;;;;;14.32;3.42;;;;;;;;;;5034218;28;20053;-69
2021/03/22 07:27:23;;;;;;;14.88;3.30;;;;;;;;;;5044474;28;20479;-69
2021/03/22 07:30:03;;;;;;;23.25;3.85;;;;;;;;;;5032430;28;20056;-69
2021/03/22 07:32:47;;;;;;;21.42;4.03;;;;;;;;;;5043720;28;20388;-69
2021/03/22 07:35:33;;;;;;;19.30;3.97;;;;;;;;;;5037066;28;20041;-68
2021/03/22 07:38:21;;;;;;;20.35;3.70;;;;;;;;;;5039123;28;20074;-69
2021/03/22 07:40:57;;;;;;;20.58;4.32;;;;;;;;;;5037753;28;20079;-69
2021/03/22 07:43:38;;;;;;;13.30;3.25;;;;;;;;;;5038379;28;20098;-69
2021/03/22 07:46:23;;;;;;;17.02;3.97;;;;;;;;;;5039784;28;20041;-69
2021/03/22 07:48:52;;;;;;;27.13;5.10;;;;;;;;;;5052673;28;20475;-70
2021/03/22 07:51:46;;;;;;;16.15;3.67;;;;;;;;;;5041218;28;20048;-69
2021/03/22 07:54:27;;;;;;;18.13;3.80;;;;;;;;;;5038239;28;20053;-69
2021/03/22 07:57:26;;;;;;;17.38;3.70;;;;;;;;;;5043401;28;20053;-69
2021/03/22 07:59:59;;;;;;;16.77;3.30;;;;;;;;;;5030694;28;20114;-69
2021/03/22 08:02:41;;;;;;;15.38;3.20;;;;;;;;;;5039367;28;20085;-69
2021/03/22 08:05:20;;;;;;;18.05;3.22;;;;;;;;;;5042620;28;20048;-69
2021/03/22 08:08:09;;;;;;;18.85;3.50;;;;;;;;;;5037473;28;20103;-70
2021/03/22 08:10:43;;;;;;;15.98;3.00;;;;;;;;;;5028824;28;20084;-69
2021/03/22 08:13:43;;;;;;;12.73;3.13;;;;;;;;;;5034027;28;20050;-69
2021/03/22 08:16:15;;;;;;;15.90;3.38;;;;;;;;;;5035695;28;20048;-69
2021/03/22 08:18:41;;;;;;;10.20;2.35;;;;;;;;;;5038907;28;20088;-69
2021/03/22 08:21:35;;;;;;;10.38;2.60;;;;;;;;;;5038719;28;20141;-69
2021/03/22 08:24:32;;;;;;;16.77;2.67;;;;;;;;;;5037434;28;20053;-69
2021/03/22 08:27:05;;;;;;;11.68;2.58;;;;;;;;;;5043940;28;20048;-69
2021/03/22 08:29:35;;;;;;;14.43;3.42;;;;;;;;;;5018722;28;20084;-69
2021/03/22 08:32:34;;;;;;;19.23;2.65;;;;;;;;;;5040527;28;20049;-69
2021/03/22 08:35:03;;;;;;;13.73;2.92;;;;;;;;;;5037596;28;20053;-69
2021/03/22 08:38:00;;;;;;;11.57;2.30;;;;;;;;;;5051906;28;20049;-69
2021/03/22 08:40:42;;;;;;;11.30;2.53;;;;;;;;;;5038978;28;20050;-71
2021/03/22 08:43:21;;;;;;;12.75;2.20;;;;;;;;;;5043586;28;20057;-72
2021/03/22 08:45:59;;;;;;;12.90;2.58;;;;;;;;;;5030758;28;20102;-75
2021/03/22 08:48:27;;;;;;;6.25;1.95;;;;;;;;;;5046368;28;20053;-71
2021/03/22 08:50:54;;;;;;;12.55;2.40;;;;;;;;;;5047554;28;20429;-72
2021/03/22 08:53:23;;;;;;;10.48;2.55;;;;;;;;;;5045258;28;20111;-72
2021/03/22 08:56:01;;;;;;;11.70;2.33;;;;;;;;;;5041167;28;20053;-71
2021/03/22 08:58:46;;;;;;;8.32;2.22;;;;;;;;;;5030757;28;20507;-72
2021/03/22 09:01:34;;;;;;;12.88;2.45;;;;;;;;;;5049315;28;20103;-68
2021/03/22 09:04:19;;;;;;;8.57;2.63;;;;;;;;;;5039273;28;20431;-74
2021/03/22 09:07:13;;;;;;;9.93;2.30;;;;;;;;;;5039766;28;20094;-75
2021/03/22 09:09:47;;;;;;;15.43;2.17;;;;;;;;;;5015127;28;20084;-70
2021/03/22 09:12:43;;;;;;;6.90;1.85;;;;;;;;;;5061154;28;20080;-71
2021/03/22 09:15:29;;;;;;;6.55;2.00;;;;;;;;;;5046169;28;20127;-72
2021/03/22 09:18:09;;;;;;;8.98;2.20;;;;;;;;;;5040745;28;20055;-71
2021/03/22 09:20:47;;;;;;;9.07;2.15;;;;;;;;;;5032430;28;20067;-69
2021/03/22 09:23:29;;;;;;;11.52;2.70;;;;;;;;;;5041385;28;20569;-69
2021/03/22 09:26:01;;;;;;;9.10;2.10;;;;;;;;;;5036676;28;20184;-70
2021/03/22 09:28:27;;;;;;;11.73;2.20;;;;;;;;;;5040638;28;20415;-72
2021/03/22 09:31:11;;;;;;;7.63;1.88;;;;;;;;;;5043543;28;20052;-71
2021/03/22 09:33:58;;;;;;;8.85;2.60;;;;;;;;;;5037850;28;20496;-71
2021/03/22 09:36:32;;;;;;;8.52;2.00;;;;;;;;;;5039922;28;20126;-70
2021/03/22 09:39:00;;;;;;;8.15;2.03;;;;;;;;;;5042316;28;20072;-70
2021/03/22 09:42:04;;;;;;;13.65;2.75;;;;;;;;;;5039586;28;20079;-70
2021/03/22 09:44:53;;;;;;;9.15;3.20;;;;;;;;;;5040064;28;20134;-70
2021/03/22 09:47:21;;;;;;;10.57;2.92;;;;;;;;;;5045759;28;20053;-71
2021/03/22 09:50:00;;;;;;;11.98;3.13;;;;;;;;;;5027828;28;20088;-72
2021/03/22 09:52:32;;;;;;;14.68;2.33;;;;;;;;;;5044661;28;20548;-74
2021/03/22 09:54:59;;;;;;;6.55;1.80;;;;;;;;;;5043651;28;20048;-73
2021/03/22 09:57:35;;;;;;;12.65;3.08;;;;;;;;;;5041619;28;20049;-73
2021/03/22 10:00:18;;;;;;;10.00;2.30;;;;;;;;;;5056334;23;20040;-74
2021/03/22 10:02:55;;;;;;;9.45;2.38;;;;;;;;;;5054578;28;20048;-74
2021/03/22 10:05:46;;;;;;;8.90;2.17;;;;;;;;;;5050519;28;20052;-74
2021/03/22 10:08:12;;;;;;;9.32;2.38;;;;;;;;;;5070365;28;20055;-76
2021/03/22 10:10:59;;;;;;;12.90;3.95;;;;;;;;;;5069949;28;20052;-76
2021/03/22 10:13:26;;;;;;;10.80;2.70;;;;;;;;;;5070713;28;20572;-76
2021/03/22 10:16:01;;;;;;;6.68;2.28;;;;;;;;;;5053508;28;20063;-78
2021/03/22 10:18:34;;;;;;;13.23;2.53;;;;;;;;;;5023100;28;20198;-79
2021/03/22 10:21:13;;;;;;;12.40;2.97;;;;;;;;;;5035826;28;20500;-75
2021/03/22 10:23:55;;;;;;;8.40;2.55;;;;;;;;;;5069937;28;20079;-75
2021/03/22 10:26:42;;;;;;;8.80;2.10;;;;;;;;;;5054190;28;20556;-77
2021/03/22 10:29:32;;;;;;;10.68;2.20;;;;;;;;;;5072778;28;20485;-75
2021/03/22 10:32:08;;;;;;;9.50;2.05;;;;;;;;;;5068485;28;20497;-75
2021/03/22 10:34:46;;;;;;;11.07;2.85;;;;;;;;;;5053043;28;20055;-74
2021/03/22 10:37:32;;;;;;;9.70;2.17;;;;;;;;;;5035755;28;20080;-74
2021/03/22 10:40:00;;;;;;;7.03;2.33;;;;;;;;;;5045047;28;20056;-74
2021/03/22 10:42:28;;;;;;;9.43;1.92;;;;;;;;;;5045616;28;20056;-74
2021/03/22 10:44:55;;;;;;;7.55;1.90;;;;;;;;;;5067123;28;20113;-74
2021/03/22 10:47:23;;;;;;;9.73;2.00;;;;;;;;;;5055823;28;20491;-76
2021/03/22 10:49:50;;;;;;;9.25;2.83;;;;;;;;;;5071757;28;20051;-78
2021/03/22 10:52:25;;;;;;;7.72;1.98;;;;;;;;;;5054651;28;20055;-76
2021/03/22 10:54:52;;;;;;;13.00;2.60;;;;;;;;;;5037572;28;20414;-75
2021/03/22 10:57:27;;;;;;;10.32;2.33;;;;;;;;;;5053318;28;20095;-77
2021/03/22 10:59:59;;;;;;;10.70;2.40;;;;;;;;;;5052686;28;20044;-77
2021/03/22 11:02:29;;;;;;;7.22;2.15;;;;;;;;;;5014142;28;20561;-74
2021/03/22 11:04:55;;;;;;;6.82;1.80;;;;;;;;;;5052790;28;20053;-75
2021/03/22 11:07:25;;;;;;;6.30;2.38;;;;;;;;;;5037129;28;20048;-75
2021/03/22 11:10:01;;;;;;;7.22;1.92;;;;;;;;;;5053276;28;20467;-79
2021/03/22 11:12:33;;;;;;;11.50;2.30;;;;;;;;;;5021086;28;20048;-76
2021/03/22 11:15:33;;;;;;;5.72;1.52;;;;;;;;;;5052795;28;20044;-73
2021/03/22 11:18:02;;;;;;;6.63;2.20;;;;;;;;;;5065220;28;20053;-76
2021/03/22 11:20:29;;;;;;;5.53;1.75;;;;;;;;;;5026377;28;20056;-76
2021/03/22 11:23:26;;;;;;;10.23;2.22;;;;;;;;;;5068631;28;20056;-74
2021/03/22 11:26:10;;;;;;;7.07;3.28;;;;;;;;;;5069080;28;20044;-76
2021/03/22 11:28:40;;;;;;;10.93;2.85;;;;;;;;;;5055235;28;20044;-76
2021/03/22 11:31:28;;;;;;;11.73;2.20;;;;;;;;;;5036975;28;20059;-76
2021/03/22 11:34:18;;;;;;;6.82;1.83;;;;;;;;;;5068517;28;20059;-78
2021/03/22 11:36:45;;;;;;;7.93;1.35;;;;;;;;;;5036638;28;20037;-76
2021/03/22 11:39:19;;;;;;;5.68;2.17;;;;;;;;;;5065269;28;20068;-76
2021/03/22 11:42:07;;;;;;;7.50;1.55;;;;;;;;;;5067237;28;20053;-79
2021/03/22 11:44:37;;;;;;;4.43;1.60;;;;;;;;;;5069964;28;20503;-74
2021/03/22 11:47:35;;;;;;;5.65;1.77;;;;;;;;;;5084726;28;20041;-75
2021/03/22 11:50:25;;;;;;;8.32;2.45;;;;;;;;;;5073232;28;20044;-74
2021/03/22 11:53:09;;;;;;;7.63;1.73;;;;;;;;;;5048979;28;20430;-72
2021/03/22 11:55:37;;;;;;;;;;;;;;;;;;5073807;28;20044;-75
2021/03/22 11:58:03;;;;;;;8.68;2.30;;;;;;;;;;5068334;28;19978;-74
2021/03/22 12:00:35;;;;;;;5.53;1.98;;;;;;;;;;5068016;28;20078;-76
2021/03/22 12:03:13;;;;;;;5.72;2.40;;;;;;;;;;5068325;28;20105;-75
2021/03/22 12:05:41;;;;;;;7.38;1.70;;;;;;;;;;5062317;28;20533;-73
2021/03/22 12:08:32;;;;;;;9.10;1.67;;;;;;;;;;5050882;28;20556;-73
2021/03/22 12:11:00;;;;;;;7.22;2.35;;;;;;;;;;5071948;28;20498;-72
2021/03/22 12:13:26;;;;;;;6.53;2.17;;;;;;;;;;5070969;28;20106;-74
2021/03/22 12:15:52;;;;;;;5.60;1.90;;;;;;;;;;5065397;28;20133;-76
2021/03/22 12:18:28;;;;;;;5.53;1.92;;;;;;;;;;5070751;28;20048;-75
2021/03/22 12:20:55;;;;;;;5.63;1.67;;;;;;;;;;5068300;28;20118;-76
2021/03/22 12:23:24;;;;;;;6.22;2.20;;;;;;;;;;5066983;28;20092;-76
2021/03/22 12:25:51;;;;;;;12.25;2.28;;;;;;;;;;5073017;28;20040;-76
2021/03/22 12:28:17;;;;;;;5.75;1.70;;;;;;;;;;5068089;28;20515;-75
2021/03/22 12:30:43;;;;;;;8.43;2.00;;;;;;;;;;5069357;28;20507;-75
2021/03/22 12:33:18;;;;;;;7.20;1.77;;;;;;;;;;5070045;28;20040;-76
2021/03/22 12:35:46;;;;;;;3.88;1.63;;;;;;;;;;5053152;28;20103;-78
2021/03/22 12:38:12;;;;;;;7.93;2.60;;;;;;;;;;5033256;28;20052;-76
2021/03/22 12:40:39;;;;;;;9.32;2.85;;;;;;;;;;5051430;28;20048;-73
2021/03/22 12:43:06;;;;;;;9.57;2.55;;;;;;;;;;5048893;28;20077;-76
2021/03/22 12:45:37;;;;;;;8.45;2.35;;;;;;;;;;5055398;28;20141;-74
2021/03/22 12:48:04;;;;;;;5.95;1.83;;;;;;;;;;5087306;28;20137;-76
2021/03/22 12:50:34;;;;;;;5.93;2.00;;;;;;;;;;5053369;28;20063;-72
2021/03/22 12:53:01;;;;;;;5.57;1.50;;;;;;;;;;5071930;28;20043;-73
2021/03/22 12:55:28;;;;;;;6.75;2.05;;;;;;;;;;5089189;28;20047;-73
2021/03/22 12:57:56;;;;;;;8.60;2.25;;;;;;;;;;5071282;28;20059;-73
2021/03/22 13:00:25;;;;;;;4.90;1.90;;;;;;;;;;5055159;28;20071;-70
2021/03/22 13:02:51;;;;;;;9.63;2.38;;;;;;;;;;5088848;28;20047;-71
2021/03/22 13:05:21;;;;;;;8.65;2.70;;;;;;;;;;5070874;28;20051;-71
2021/03/22 13:07:47;;;;;;;6.10;2.58;;;;;;;;;;5085173;28;20054;-70
2021/03/22 13:10:19;;;;;;;4.18;1.98;;;;;;;;;;5088549;28;20048;-70
2021/03/22 13:12:45;;;;;;;9.88;1.98;;;;;;;;;;5085124;28;20414;-70
2021/03/22 13:15:24;;;;;;;8.05;2.20;;;;;;;;;;5087578;28;20044;-71
2021/03/22 13:17:50;;;;;;;4.28;1.65;;;;;;;;;;5068239;28;20101;-71
2021/03/22 13:20:17;;;;;;;7.60;2.47;;;;;;;;;;5089461;28;20067;-71
2021/03/22 13:22:43;;;;;;;9.85;3.83;;;;;;;;;;5088403;28;20068;-71
2021/03/22 13:25:21;;;;;;;7.05;2.72;;;;;;;;;;5087430;28;20040;-71
2021/03/22 13:27:49;;;;;;;6.97;2.95;;;;;;;;;;5089244;28;20053;-71
2021/03/22 13:30:21;;;;;;;7.90;3.22;;;;;;;;;;5089542;28;20556;-71
2021/03/22 13:32:48;;;;;;;19.25;7.47;;;;;;;;;;5089204;28;20079;-71
2021/03/22 13:35:25;;;;;;;28.27;10.05;;;;;;;;;;5085158;28;20044;-71
2021/03/22 13:37:51;;;;;;;31.55;11.38;;;;;;;;;;5089537;28;20071;-71
2021/03/22 13:40:18;;;;;;;9.52;5.13;;;;;;;;;;5088948;28;20499;-72
2021/03/22 13:42:45;;;;;;;5.70;2.13;;;;;;;;;;5086410;28;20056;-72
2021/03/22 13:45:22;;;;;;;5.45;2.08;;;;;;;;;;5089024;28;20076;-71
2021/03/22 13:47:49;;;;;;;4.75;1.88;;;;;;;;;;5073627;28;20399;-71
2021/03/22 13:50:16;;;;;;;6.95;2.17;;;;;;;;;;5048561;28;20056;-71
2021/03/22 13:52:42;;;;;;;4.55;2.03;;;;;;;;;;5081084;28;20503;-76
2021/03/22 13:55:11;;;;;;;8.02;2.25;;;;;;;;;;5054183;28;20114;-73
2021/03/22 13:57:37;;;;;;;5.43;2.08;;;;;;;;;;5064457;28;20079;-74
2021/03/22 14:00:04;;;;;;;6.57;2.08;;;;;;;;;;5073115;28;20473;-76
2021/03/22 14:02:30;;;;;;;3.53;1.77;;;;;;;;;;5071032;28;20499;-76
2021/03/22 14:04:58;;;;;;;7.13;2.53;;;;;;;;;;5068261;28;20088;-76
2021/03/22 14:07:24;;;;;;;5.80;2.58;;;;;;;;;;5072779;28;20049;-76
2021/03/22 14:12:31;;;;;;;7.50;2.35;;;;;;;;;;3290517;22;20053;-72
2021/03/22 14:14:58;;;;;;;8.43;2.70;;;;;;;;;;5031059;28;20473;-74
2021/03/22 14:17:24;;;;;;;6.22;2.58;;;;;;;;;;5029436;28;20500;-74
2021/03/22 14:19:53;;;;;;;6.13;2.47;;;;;;;;;;5031439;28;20100;-75
2021/03/22 14:22:22;;;;;;;8.23;2.35;;;;;;;;;;5032698;28;20103;-75
2021/03/22 14:24:48;;;;;;;7.75;2.65;;;;;;;;;;5027397;28;20504;-74
2021/03/22 14:27:14;;;;;;;6.13;2.28;;;;;;;;;;5020842;28;20092;-74
2021/03/22 14:29:40;;;;;;;5.03;2.38;;;;;;;;;;5023367;28;20681;-72
2021/03/22 14:32:07;;;;;;;8.93;2.60;;;;;;;;;;5031373;28;20099;-77
2021/03/22 14:34:34;;;;;;;7.65;2.72;;;;;;;;;;5027165;28;20531;-74
2021/03/22 14:37:00;;;;;;;5.00;2.70;;;;;;;;;;5025549;28;20099;-72
2021/03/22 14:39:28;;;;;;;6.40;2.70;;;;;;;;;;5024548;28;20057;-72
2021/03/22 14:41:54;;;;;;;10.95;3.30;;;;;;;;;;5026478;28;20045;-72
2021/03/22 14:44:21;;;;;;;7.00;3.17;;;;;;;;;;5031686;28;20045;-72
2021/03/22 14:46:47;;;;;;;6.95;3.20;;;;;;;;;;5026059;28;20419;-72
2021/03/22 14:49:13;;;;;;;9.65;3.47;;;;;;;;;;5023764;28;20045;-71
2021/03/22 14:51:40;;;;;;;7.18;3.13;;;;;;;;;;5015448;28;20100;-76
2021/03/22 14:54:06;;;;;;;9.20;3.75;;;;;;;;;;5025117;28;20119;-74
2021/03/22 14:56:35;;;;;;;10.23;4.15;;;;;;;;;;5023597;28;20049;-70
2021/03/22 14:59:10;;;;;;;7.22;2.92;;;;;;;;;;5024129;28;20468;-72
2021/03/22 15:01:36;;;;;;;7.40;2.70;;;;;;;;;;5028023;28;20104;-71
2021/03/22 15:04:03;;;;;;;7.05;3.83;;;;;;;;;;5027054;28;20425;-71
2021/03/22 15:06:48;;;;;;;8.90;3.70;;;;;;;;;;5021537;28;20184;-71
2021/03/22 15:09:14;;;;;;;8.45;3.10;;;;;;;;;;5004889;28;20538;-72
2021/03/22 15:11:40;;;;;;;9.23;3.15;;;;;;;;;;5019302;28;20816;-72